createdAt,value
2022-10-17T00:02:51.615Z,98723.03
2022-10-17T00:05:54.909Z,98718.97
2022-10-17T00:08:58.122Z,98726.25
2022-10-17T00:12:02.663Z,98716.84
2022-10-17T00:15:08.304Z,98723.03
2022-10-17T00:18:12.647Z,98723.56
2022-10-17T00:21:19.848Z,98739.47
2022-10-17T00:24:23.921Z,98743.59
2022-10-17T00:27:27.293Z,98741.97
2022-10-17T00:30:30.375Z,98744.13
2022-10-17T00:33:35.756Z,98745.25
2022-10-17T00:36:38.616Z,98744.19
2022-10-17T00:39:41.305Z,98746.13
2022-10-17T00:42:44.393Z,98740.53
2022-10-17T00:45:47.364Z,98745.38
2022-10-17T00:48:53.643Z,98745.91
2022-10-17T00:51:58.560Z,98739.72
2022-10-17T00:55:07.361Z,98745.66
2022-10-17T00:58:10.792Z,98738.91
2022-10-17T01:01:13.625Z,98743.53
2022-10-17T01:04:18.887Z,98734.66
2022-10-17T01:07:22.070Z,98748.94
2022-10-17T01:10:30.940Z,98750.03
2022-10-17T01:13:40.811Z,98749.22
2022-10-17T01:16:52.278Z,98744.63
2022-10-17T01:20:37.035Z,98745.75
2022-10-17T01:24:18.751Z,98743.03
2022-10-17T01:27:35.667Z,98744.13
2022-10-17T01:31:00.600Z,98741.69
2022-10-17T01:34:12.407Z,98741.44
2022-10-17T01:37:20.100Z,98746.31
2022-10-17T01:40:31.660Z,98741.97
2022-10-17T01:43:40.505Z,98744.69
2022-10-17T01:46:50.708Z,98744.44
2022-10-17T01:50:01.035Z,98738.00
2022-10-17T01:53:10.072Z,98741.78
2022-10-17T01:56:15.734Z,98738.03
2022-10-17T01:59:22.678Z,98734.81
2022-10-17T02:02:28.582Z,98732.91
2022-10-17T02:05:37.731Z,98728.63
2022-10-17T02:08:45.495Z,98729.41
2022-10-17T02:12:12.975Z,98731.88
2022-10-17T02:15:29.597Z,98737.53
2022-10-17T02:18:48.586Z,98722.19
2022-10-17T02:22:00.162Z,98738.34
2022-10-17T02:25:11.297Z,98729.75
2022-10-17T02:28:22.078Z,98729.16
2022-10-17T02:31:30.203Z,98737.25
2022-10-17T02:34:38.705Z,98729.69
2022-10-17T02:37:43.351Z,98734.50
2022-10-17T02:40:48.430Z,98742.31
2022-10-17T02:43:55.640Z,98741.81
2022-10-17T02:47:10.317Z,98742.34
2022-10-17T02:50:15.186Z,98736.72
2022-10-17T02:53:24.545Z,98748.06
2022-10-17T02:56:30.382Z,98741.84
2022-10-17T02:59:36.768Z,98741.31
2022-10-17T03:02:42.362Z,98743.47
2022-10-17T03:05:46.890Z,98734.56
2022-10-17T03:08:49.799Z,98740.50
2022-10-17T03:11:52.874Z,98734.84
2022-10-17T03:14:55.738Z,98740.50
2022-10-17T03:17:58.582Z,98735.13
2022-10-17T03:21:02.858Z,98745.38
2022-10-17T03:24:09.145Z,98745.66
2022-10-17T03:27:12.490Z,98744.03
2022-10-17T03:30:15.313Z,98756.66
2022-10-17T03:33:18.241Z,98751.03
2022-10-17T03:36:22.938Z,98756.69
2022-10-17T03:39:26.052Z,98760.75
2022-10-17T03:42:28.992Z,98751.09
2022-10-17T03:45:31.722Z,98758.91
2022-10-17T03:48:35.267Z,98756.50
2022-10-17T03:51:42.903Z,98754.84
2022-10-17T03:54:47.230Z,98760.78
2022-10-17T03:57:50.111Z,98759.72
2022-10-17T04:00:53.414Z,98764.56
2022-10-17T04:03:57.698Z,98756.50
2022-10-17T04:07:02.235Z,98763.47
2022-10-17T04:10:05.315Z,98784.22
2022-10-17T04:13:08.043Z,98781.53
2022-10-17T04:16:13.888Z,98783.41
2022-10-17T04:19:17.040Z,98786.63
2022-10-17T04:22:21.513Z,98785.00
2022-10-17T04:25:24.354Z,98788.25
2022-10-17T04:28:28.019Z,98794.97
2022-10-17T04:31:31.193Z,98801.97
2022-10-17T04:34:34.062Z,98797.41
2022-10-17T04:37:38.576Z,98802.00
2022-10-17T04:40:42.599Z,98800.63
2022-10-17T04:43:48.625Z,98809.78
2022-10-17T04:46:54.010Z,98802.50
2022-10-17T04:49:56.854Z,98803.06
2022-10-17T04:53:01.174Z,98803.06
2022-10-17T04:56:09.637Z,98797.97
2022-10-17T04:59:12.510Z,98795.78
2022-10-17T05:02:15.420Z,98807.94
2022-10-17T05:05:18.284Z,98806.84
2022-10-17T05:08:22.567Z,98811.41
2022-10-17T05:11:27.647Z,98809.00
2022-10-17T05:14:30.534Z,98806.84
2022-10-17T05:17:33.223Z,98798.25
2022-10-17T05:20:36.005Z,98797.97
2022-10-17T05:23:40.215Z,98801.72
2022-10-17T05:26:43.064Z,98802.53
2022-10-17T05:29:46.178Z,98794.19
2022-10-17T05:32:49.534Z,98795.78
2022-10-17T05:35:52.426Z,98791.22
2022-10-17T05:38:56.544Z,98802.53
2022-10-17T05:41:59.371Z,98805.47
2022-10-17T05:45:02.558Z,98809.53
2022-10-17T05:48:06.252Z,98807.63
2022-10-17T05:51:10.635Z,98803.59
2022-10-17T05:54:15.015Z,98808.44
2022-10-17T05:57:17.778Z,98815.41
2022-10-17T06:00:21.518Z,98825.09
2022-10-17T06:03:24.516Z,98817.75
2022-10-17T06:06:27.390Z,98815.41
2022-10-17T06:09:31.813Z,98817.19
2022-10-17T06:12:34.678Z,98812.75
2022-10-17T06:15:37.605Z,98813.78
2022-10-17T06:18:40.545Z,98812.13
2022-10-17T06:21:43.391Z,98819.88
2022-10-17T06:24:47.481Z,98812.31
2022-10-17T06:27:50.502Z,98818.59
2022-10-17T06:30:53.437Z,98823.06
2022-10-17T06:33:56.337Z,98819.06
2022-10-17T06:36:59.573Z,98815.19
2022-10-17T06:40:03.824Z,98828.50
2022-10-17T06:43:07.483Z,98839.91
2022-10-17T06:46:11.095Z,98850.47
2022-10-17T06:49:14.067Z,98858.38
2022-10-17T06:52:17.678Z,98864.19
2022-10-17T06:55:23.269Z,98874.72
2022-10-17T06:58:26.195Z,98876.09
2022-10-17T07:01:29.940Z,98883.56
2022-10-17T07:04:33.002Z,98881.34
2022-10-17T07:07:38.853Z,98884.16
2022-10-17T07:10:45.886Z,98888.00
2022-10-17T07:13:49.234Z,98896.13
2022-10-17T07:16:51.966Z,98895.59
2022-10-17T07:19:54.693Z,98895.06
2022-10-17T07:22:57.815Z,98899.13
2022-10-17T07:26:03.651Z,98904.25
2022-10-17T07:29:07.458Z,98893.69
2022-10-17T07:32:10.290Z,98897.69
2022-10-17T07:35:13.399Z,98900.13
2022-10-17T07:38:16.200Z,98904.34
2022-10-17T07:41:21.966Z,98906.72
2022-10-17T07:44:29.102Z,98902.84
2022-10-17T07:47:35.651Z,98906.50
2022-10-17T07:50:38.591Z,98918.03
2022-10-17T07:53:46.394Z,98912.22
2022-10-17T07:56:53.276Z,98910.50
2022-10-17T07:59:56.002Z,98917.97
2022-10-17T08:02:58.762Z,98916.78
2022-10-17T08:06:02.620Z,98922.34
2022-10-17T08:09:05.686Z,98920.34
2022-10-17T08:12:10.260Z,98914.47
2022-10-17T08:15:13.054Z,98911.31
2022-10-17T08:18:16.084Z,98910.03
2022-10-17T08:21:18.855Z,98914.47
2022-10-17T08:24:22.096Z,98915.38
2022-10-17T08:27:27.968Z,98917.13
2022-10-17T08:30:31.143Z,98912.63
2022-10-17T08:33:34.269Z,98917.06
2022-10-17T08:36:37.289Z,98921.31
2022-10-17T08:39:40.276Z,98930.06
2022-10-17T08:43:22.111Z,98924.97
2022-10-17T08:46:32.546Z,98920.03
2022-10-17T08:49:42.887Z,98925.25
2022-10-17T08:52:50.443Z,98926.97
2022-10-17T08:55:54.877Z,98922.41
2022-10-17T08:58:59.784Z,98925.91
2022-10-17T09:02:10.579Z,98922.97
2022-10-17T09:05:41.073Z,98926.97
2022-10-17T09:08:54.037Z,98927.13
2022-10-17T09:12:12.572Z,98921.63
2022-10-17T09:15:32.696Z,98912.81
2022-10-17T09:18:38.662Z,98923.91
2022-10-17T09:21:45.894Z,98920.91
2022-10-17T09:24:53.449Z,98921.34
2022-10-17T09:28:04.462Z,98921.25
2022-10-17T09:31:14.569Z,98919.13
2022-10-17T09:34:20.365Z,98922.50
2022-10-17T09:37:32.086Z,98934.88
2022-10-17T09:40:36.044Z,98922.13
2022-10-17T09:43:40.587Z,98921.22
2022-10-17T09:46:54.800Z,98920.31
2022-10-17T09:49:57.852Z,98923.03
2022-10-17T09:53:08.495Z,98914.19
2022-10-17T09:56:16.104Z,98917.56
2022-10-17T09:59:32.836Z,98921.91
2022-10-17T10:02:40.777Z,98917.06
2022-10-17T10:05:58.636Z,98921.69
2022-10-17T10:09:03.534Z,98911.72
2022-10-17T10:12:16.916Z,98915.22
2022-10-17T10:15:39.019Z,98919.25
2022-10-17T10:18:45.505Z,98922.13
2022-10-17T10:21:57.208Z,98925.03
2022-10-17T10:25:10.082Z,98923.69
2022-10-17T10:28:12.984Z,98919.50
2022-10-17T10:31:15.832Z,98932.94
2022-10-17T10:34:24.016Z,98927.78
2022-10-17T10:37:30.319Z,98925.84
2022-10-17T10:40:38.876Z,98922.44
2022-10-17T10:43:44.516Z,98915.81
2022-10-17T10:46:47.360Z,98923.97
2022-10-17T10:49:55.165Z,98925.38
2022-10-17T10:53:13.064Z,98927.91
2022-10-17T10:56:20.949Z,98912.81
2022-10-17T10:59:28.620Z,98923.66
2022-10-17T11:02:37.707Z,98917.41
2022-10-17T11:05:45.130Z,98916.19
2022-10-17T11:08:51.435Z,98923.78
2022-10-17T11:12:01.332Z,98914.34
2022-10-17T11:15:15.541Z,98908.47
2022-10-17T11:18:24.718Z,98911.09
2022-10-17T11:21:38.598Z,98907.75
2022-10-17T11:24:45.840Z,98903.97
2022-10-17T11:27:48.787Z,98901.84
2022-10-17T11:30:56.787Z,98901.31
2022-10-17T11:34:02.538Z,98903.03
2022-10-17T11:37:15.903Z,98895.50
2022-10-17T11:40:31.148Z,98892.09
2022-10-17T11:43:39.863Z,98890.72
2022-10-17T11:46:46.576Z,98888.91
2022-10-17T11:49:54.240Z,98895.53
2022-10-17T11:53:04.300Z,98897.47
2022-10-17T11:56:11.221Z,98897.81
2022-10-17T11:59:40.956Z,98905.66
2022-10-17T12:02:51.756Z,98903.22
2022-10-17T12:06:00.893Z,98901.25
2022-10-17T12:09:11.714Z,98896.09
2022-10-17T12:12:27.040Z,98901.09
2022-10-17T12:15:32.154Z,98900.34
2022-10-17T12:18:34.920Z,98894.78
2022-10-17T12:21:56.551Z,98901.22
2022-10-17T12:25:02.892Z,98889.19
2022-10-17T12:28:18.178Z,98888.88
2022-10-17T12:31:29.676Z,98875.72
2022-10-17T12:34:35.623Z,98888.59
2022-10-17T12:38:11.875Z,98884.41
2022-10-17T12:41:16.558Z,98886.19
2022-10-17T12:44:37.904Z,98893.97
2022-10-17T12:47:40.723Z,98885.53
2022-10-17T12:51:30.675Z,98888.47
2022-10-17T12:54:27.548Z,98895.63
2022-10-17T12:57:38.711Z,98894.78
2022-10-17T13:01:05.281Z,98906.41
2022-10-17T13:04:12.575Z,98911.81
2022-10-17T13:07:20.686Z,98910.84
2022-10-17T13:13:42.481Z,98920.25
2022-10-17T13:16:53.165Z,98929.69
2022-10-17T13:19:57.256Z,98926.16
2022-10-17T13:23:01.083Z,98936.47
2022-10-17T13:26:13.784Z,98941.41
2022-10-17T13:29:19.281Z,98932.59
2022-10-17T13:32:21.970Z,98939.03
2022-10-17T13:35:55.403Z,98939.72
2022-10-17T13:38:52.892Z,98946.59
2022-10-17T13:41:57.932Z,98942.94
2022-10-17T13:45:03.448Z,98945.31
2022-10-17T13:48:17.192Z,98949.69
2022-10-17T13:51:20.195Z,98952.84
2022-10-17T13:54:42.849Z,98953.41
2022-10-17T13:57:45.643Z,98957.06
2022-10-17T14:00:50.781Z,98953.56
2022-10-17T14:04:07.803Z,98960.81
2022-10-17T14:07:29.373Z,98949.97
2022-10-17T14:10:36.850Z,98952.47
2022-10-17T14:13:40.247Z,98954.50
2022-10-17T14:16:45.797Z,98952.94
2022-10-17T14:20:14.125Z,98954.88
2022-10-17T14:23:38.539Z,98959.16
2022-10-17T14:26:49.830Z,98950.97
2022-10-17T14:29:55.097Z,98956.03
2022-10-17T14:33:03.416Z,98949.44
2022-10-17T14:36:06.513Z,98953.50
2022-10-17T14:39:20.091Z,98960.00
2022-10-17T14:42:24.335Z,98957.53
2022-10-17T14:45:30.475Z,98957.22
2022-10-17T14:48:34.840Z,98959.78
2022-10-17T14:51:50.320Z,98961.53
2022-10-17T14:55:01.911Z,98951.47
2022-10-17T14:58:18.208Z,98958.66
2022-10-17T15:01:21.094Z,98959.69
2022-10-17T15:04:25.435Z,98962.00
2022-10-17T15:07:29.382Z,98963.28
2022-10-17T15:10:35.195Z,98958.88
2022-10-17T15:13:43.280Z,98960.72
2022-10-17T15:16:48.389Z,98962.69
2022-10-17T15:19:52.532Z,98970.44
2022-10-17T15:22:55.587Z,98963.56
2022-10-17T15:25:58.469Z,98964.72
2022-10-17T15:29:01.778Z,98963.59
2022-10-17T15:32:04.483Z,98968.78
2022-10-17T15:35:10.204Z,98964.16
2022-10-17T15:38:16.922Z,98967.38
2022-10-17T15:41:20.523Z,98971.56
2022-10-17T15:44:23.573Z,98975.44
2022-10-17T15:47:31.314Z,98967.44
2022-10-17T15:50:36.007Z,98979.00
2022-10-17T15:53:38.986Z,98973.06
2022-10-17T15:56:43.244Z,98975.63
2022-10-17T15:59:47.828Z,98983.97
2022-10-17T16:02:51.774Z,98995.34
2022-10-17T16:05:56.146Z,98992.75
2022-10-17T16:08:59.740Z,98993.34
2022-10-17T16:12:02.948Z,98998.41
2022-10-17T16:15:07.248Z,98998.03
2022-10-17T16:18:10.391Z,99009.19
2022-10-17T16:21:16.684Z,99004.47
2022-10-17T16:24:19.540Z,99008.72
2022-10-17T16:27:22.472Z,99010.56
2022-10-17T16:30:26.920Z,99015.47
2022-10-17T16:33:31.347Z,99011.66
2022-10-17T16:36:36.238Z,99018.16
2022-10-17T16:39:39.091Z,99019.00
2022-10-17T16:42:41.963Z,99014.13
2022-10-17T16:45:44.770Z,99016.25
2022-10-17T16:48:49.021Z,99025.94
2022-10-17T16:51:53.588Z,99035.13
2022-10-17T16:54:56.392Z,99035.03
2022-10-17T16:58:00.117Z,99035.25
2022-10-17T17:01:03.861Z,99041.66
2022-10-17T17:04:06.766Z,99045.91
2022-10-17T17:07:12.039Z,99048.69
2022-10-17T17:10:15.295Z,99046.19
2022-10-17T17:13:19.339Z,99053.63
2022-10-17T17:16:24.547Z,99058.34
2022-10-17T17:19:27.506Z,99064.19
2022-10-17T17:22:31.623Z,99066.19
2022-10-17T17:25:35.682Z,99073.59
2022-10-17T17:28:39.679Z,99076.72
2022-10-17T17:31:42.498Z,99078.41
2022-10-17T17:34:45.388Z,99079.69
2022-10-17T17:37:49.453Z,99071.72
2022-10-17T17:40:52.641Z,99065.03
2022-10-17T17:43:55.886Z,99071.94
2022-10-17T17:46:59.262Z,99081.16
2022-10-17T17:50:03.341Z,99086.16
2022-10-17T17:53:08.518Z,99088.41
2022-10-17T17:56:14.104Z,99091.72
2022-10-17T17:59:17.436Z,99091.28
2022-10-17T18:02:20.348Z,99082.91
2022-10-17T18:05:23.478Z,99087.03
2022-10-17T18:08:27.712Z,99089.75
2022-10-17T18:11:31.074Z,99093.84
2022-10-17T18:14:33.794Z,99105.56
2022-10-17T18:17:37.800Z,99109.38
2022-10-17T18:20:42.202Z,99116.69
2022-10-17T18:23:48.472Z,99117.56
2022-10-17T18:26:54.022Z,99114.84
2022-10-17T18:30:00.170Z,99112.72
2022-10-17T18:33:03.166Z,99112.81
2022-10-17T18:36:08.085Z,99113.38
2022-10-17T18:39:12.666Z,99118.56
2022-10-17T18:42:15.631Z,99122.44
2022-10-17T18:45:18.539Z,99124.94
2022-10-17T18:48:21.705Z,99123.38
2022-10-17T18:51:26.602Z,99117.00
2022-10-17T18:54:33.347Z,99124.34
2022-10-17T18:57:36.258Z,99120.84
2022-10-17T19:00:39.058Z,99127.38
2022-10-17T19:03:42.605Z,99126.88
2022-10-17T19:06:45.711Z,99131.25
2022-10-17T19:09:50.655Z,99131.81
2022-10-17T19:12:53.988Z,99133.50
2022-10-17T19:15:56.912Z,99138.66
2022-10-17T19:19:02.368Z,99140.84
2022-10-17T19:22:05.640Z,99138.19
2022-10-17T19:25:10.768Z,99130.66
2022-10-17T19:28:13.627Z,99137.72
2022-10-17T19:31:18.009Z,99138.06
2022-10-17T19:34:21.813Z,99144.28
2022-10-17T19:37:25.338Z,99135.63
2022-10-17T19:40:29.770Z,99132.41
2022-10-17T19:43:33.001Z,99138.91
2022-10-17T19:46:36.105Z,99141.44
2022-10-17T19:49:39.580Z,99130.09
2022-10-17T19:52:42.552Z,99126.91
2022-10-17T19:55:47.294Z,99127.47
2022-10-17T19:58:51.143Z,99119.94
2022-10-17T20:01:53.909Z,99121.06
2022-10-17T20:05:13.839Z,99120.00
2022-10-17T20:11:36.064Z,99119.44
2022-10-17T20:14:41.171Z,99120.84
2022-10-17T20:17:44.033Z,99124.13
2022-10-17T20:20:46.948Z,99128.47
2022-10-17T20:23:50.823Z,99128.78
2022-10-17T20:26:55.117Z,99126.38
2022-10-17T20:30:01.746Z,99131.78
2022-10-17T20:33:04.594Z,99134.50
2022-10-17T20:36:08.707Z,99137.75
2022-10-17T20:39:12.558Z,99134.50
2022-10-17T20:42:16.946Z,99140.16
2022-10-17T20:45:32.009Z,99144.81
2022-10-17T20:48:42.964Z,99149.38
2022-10-17T20:51:46.358Z,99144.56
2022-10-17T20:54:49.141Z,99147.56
2022-10-17T20:57:55.112Z,99144.03
2022-10-17T21:00:58.068Z,99145.69
2022-10-17T21:04:21.239Z,99148.41
2022-10-17T21:07:25.291Z,99147.38
2022-10-17T21:10:35.257Z,99146.31
2022-10-17T21:13:43.935Z,99150.66
2022-10-17T21:16:46.897Z,99149.28
2022-10-17T21:19:49.859Z,99146.88
2022-10-17T21:22:52.613Z,99147.16
2022-10-17T21:25:55.379Z,99148.00
2022-10-17T21:29:03.013Z,99147.47
2022-10-17T21:32:14.645Z,99156.66
2022-10-17T21:35:28.143Z,99151.81
2022-10-17T21:38:31.093Z,99160.19
2022-10-17T21:41:34.399Z,99164.53
2022-10-17T21:44:38.678Z,99163.94
2022-10-17T21:47:41.788Z,99168.81
2022-10-17T21:50:48.532Z,99159.66
2022-10-17T21:53:52.225Z,99151.06
2022-10-17T21:56:55.082Z,99156.47
2022-10-17T21:59:59.241Z,99155.44
2022-10-17T22:03:05.869Z,99145.97
2022-10-17T22:06:37.692Z,99144.66
2022-10-17T22:09:32.527Z,99156.00
2022-10-17T22:12:35.320Z,99146.81
2022-10-17T22:15:39.393Z,99142.50
2022-10-17T22:18:43.241Z,99141.72
2022-10-17T22:21:46.336Z,99143.06
2022-10-17T22:24:49.102Z,99139.56
2022-10-17T22:27:51.979Z,99142.53
2022-10-17T22:30:56.274Z,99128.75
2022-10-17T22:33:59.111Z,99134.16
2022-10-17T22:37:01.904Z,99129.03
2022-10-17T22:40:05.578Z,99122.03
2022-10-17T22:43:08.882Z,99119.59
2022-10-17T22:46:15.854Z,99120.97
2022-10-17T22:49:19.039Z,99121.78
2022-10-17T22:52:21.887Z,99121.78
2022-10-17T22:55:24.985Z,99114.78
2022-10-17T22:58:28.534Z,99121.81
2022-10-17T23:01:32.806Z,99113.41
2022-10-17T23:04:35.978Z,99116.94
2022-10-17T23:07:38.668Z,99114.22
2022-10-17T23:10:41.996Z,99106.69
2022-10-17T23:26:53.337Z,99093.47
2022-10-17T23:29:56.171Z,99096.69
2022-10-17T23:32:59.030Z,99098.59
2022-10-17T23:36:05.211Z,99094.28
2022-10-17T23:39:08.605Z,99081.59
2022-10-17T23:42:12.806Z,99084.28
2022-10-17T23:45:16.055Z,99089.69
2022-10-17T23:48:18.746Z,99083.75
2022-10-17T23:51:22.445Z,99082.94
2022-10-17T23:54:25.531Z,99078.63
2022-10-17T23:57:30.420Z,99085.63
